Tandil, Argentina
Current Conditions -  °F | °C
As of 7:00 PM on Sunday 23 Nov 2014 (Local Time) from SAZM Reporting Station
Clear Clear  
Wind Chill: 75°   Ceiling: Unl
Heat Index: 75°   Visibility: 6mi
Dew Point: 59°   Wind: 8mph
Humidity: 57%   Direction: 340°NNW
Pressure: 29.65"   Gusts: NA
Location:  37.32°S, 59.15°W
Report Text: SAZM 232200Z 34007KT CAVOK 24/15 Q1004
Loading
Personal Weather Stations






























Interactive Weather Map New forecast layout! Learn more

10-Day Weather Forecast

Advertisements
Track Severe Weather on mobile